North Prairie, Texas
Current Conditions -  °F | °C
As of 7:55 AM on Saturday 20 Dec 2014 (Local Time) from KPWG Reporting Station
Overcast Overcast  
Wind Chill: 43°   Ceiling: 2500
Heat Index: 46°   Visibility: 7mi
Dew Point: 41°   Wind: 7mph
Humidity: 81%   Direction: 360°N
Pressure: 30.23"   Gusts: NA
Location:  31.2985°N, 97.112°W
Report Text: KPWG 201355Z AUTO 36006KT 7SM SCT009 OVC025 08/05 A3023 RMK AO1
Loading
Personal Weather Stations






























Interactive Weather Map New forecast layout! Learn more

10-Day Weather Forecast

Advertisements
Track Severe Weather on mobile